sensor_id;sensor_type;location;lat;lon;timestamp;pressure;altitude;pressure_sealevel;temperature;humidity
62895;BME280;49204;44.916;37.998;2022-10-29T00:01:13;102445.34;;;8.39;81.36
62895;BME280;49204;44.916;37.998;2022-10-29T00:03:42;102440.55;;;8.37;81.28
62895;BME280;49204;44.916;37.998;2022-10-29T00:06:11;102441.89;;;8.32;81.30
62895;BME280;49204;44.916;37.998;2022-10-29T00:08:41;102439.70;;;8.28;81.34
62895;BME280;49204;44.916;37.998;2022-10-29T00:11:15;102446.70;;;8.25;81.42
62895;BME280;49204;44.916;37.998;2022-10-29T00:13:47;102441.46;;;8.23;81.41
62895;BME280;49204;44.916;37.998;2022-10-29T00:16:19;102438.41;;;8.19;81.47
62895;BME280;49204;44.916;37.998;2022-10-29T00:18:48;102440.16;;;8.16;81.58
62895;BME280;49204;44.916;37.998;2022-10-29T00:21:18;102436.67;;;8.14;81.61
62895;BME280;49204;44.916;37.998;2022-10-29T00:23:48;102440.16;;;8.12;81.63
62895;BME280;49204;44.916;37.998;2022-10-29T00:26:19;102436.67;;;8.14;81.61
62895;BME280;49204;44.916;37.998;2022-10-29T00:28:53;102439.72;;;8.16;81.53
62895;BME280;49204;44.916;37.998;2022-10-29T00:31:22;102440.16;;;8.16;81.56
62895;BME280;49204;44.916;37.998;2022-10-29T00:33:52;102436.20;;;8.19;81.58
62895;BME280;49204;44.916;37.998;2022-10-29T00:36:23;102433.16;;;8.19;81.60
62895;BME280;49204;44.916;37.998;2022-10-29T00:38:53;102430.54;;;8.19;81.54
62895;BME280;49204;44.916;37.998;2022-10-29T00:41:26;102434.03;;;8.20;81.42
62895;BME280;49204;44.916;37.998;2022-10-29T00:46:56;102428.34;;;8.23;81.30
62895;BME280;49204;44.916;37.998;2022-10-29T00:49:16;102427.48;;;8.23;81.41
62895;BME280;49204;44.916;37.998;2022-10-29T00:51:46;102426.61;;;8.19;81.66
62895;BME280;49204;44.916;37.998;2022-10-29T00:54:16;102436.66;;;8.21;81.65
62895;BME280;49204;44.916;37.998;2022-10-29T00:59:46;102434.03;;;8.21;81.65
62895;BME280;49204;44.916;37.998;2022-10-29T01:02:16;102429.23;;;8.21;81.62
62895;BME280;49204;44.916;37.998;2022-10-29T01:04:45;102433.16;;;8.18;81.72
62895;BME280;49204;44.916;37.998;2022-10-29T01:07:14;102430.54;;;8.18;81.79
62895;BME280;49204;44.916;37.998;2022-10-29T01:09:43;102428.33;;;8.19;81.76
62895;BME280;49204;44.916;37.998;2022-10-29T01:14:59;102434.02;;;8.15;81.89
62895;BME280;49204;44.916;37.998;2022-10-29T01:31:38;102440.57;;;8.27;81.90
62895;BME280;49204;44.916;37.998;2022-10-29T01:34:21;102432.28;;;8.25;81.92
62895;BME280;49204;44.916;37.998;2022-10-29T01:36:59;102438.39;;;8.25;81.87
62895;BME280;49204;44.916;37.998;2022-10-29T01:39:36;102436.63;;;8.24;81.90
62895;BME280;49204;44.916;37.998;2022-10-29T01:47:27;102443.22;;;8.20;82.34
62895;BME280;49204;44.916;37.998;2022-10-29T01:49:59;102440.14;;;8.19;82.45
62895;BME280;49204;44.916;37.998;2022-10-29T01:52:31;102444.52;;;8.18;82.55
62895;BME280;49204;44.916;37.998;2022-10-29T01:55:01;102448.05;;;8.17;82.71
62895;BME280;49204;44.916;37.998;2022-10-29T01:57:35;102440.58;;;8.15;82.97
62895;BME280;49204;44.916;37.998;2022-10-29T02:00:13;102440.59;;;8.20;82.99
62895;BME280;49204;44.916;37.998;2022-10-29T02:11:24;102434.88;;;8.33;83.04
62895;BME280;49204;44.916;37.998;2022-10-29T02:13:56;102438.38;;;8.39;82.83
62895;BME280;49204;44.916;37.998;2022-10-29T02:16:25;102436.20;;;8.43;82.64
62895;BME280;49204;44.916;37.998;2022-10-29T02:18:56;102435.30;;;8.44;82.70
62895;BME280;49204;44.916;37.998;2022-10-29T02:21:24;102433.13;;;8.44;82.74
62895;BME280;49204;44.916;37.998;2022-10-29T02:23:53;102432.27;;;8.42;82.93
62895;BME280;49204;44.916;37.998;2022-10-29T02:26:22;102432.67;;;8.41;83.00
62895;BME280;49204;44.916;37.998;2022-10-29T02:28:50;102435.30;;;8.41;83.10
62895;BME280;49204;44.916;37.998;2022-10-29T02:31:19;102440.10;;;8.40;83.21
62895;BME280;49204;44.916;37.998;2022-10-29T02:33:48;102437.47;;;8.40;83.17
62895;BME280;49204;44.916;37.998;2022-10-29T02:36:17;102439.27;;;8.43;83.25
62895;BME280;49204;44.916;37.998;2022-10-29T02:38:45;102440.11;;;8.48;83.29
62895;BME280;49204;44.916;37.998;2022-10-29T02:41:14;102440.11;;;8.49;83.30
62895;BME280;49204;44.916;37.998;2022-10-29T02:43:43;102438.34;;;8.50;83.32
62895;BME280;49204;44.916;37.998;2022-10-29T02:46:14;102438.34;;;8.52;83.38
62895;BME280;49204;44.916;37.998;2022-10-29T02:48:43;102437.03;;;8.55;83.25
62895;BME280;49204;44.916;37.998;2022-10-29T02:51:12;102438.77;;;8.59;83.25
62895;BME280;49204;44.916;37.998;2022-10-29T02:53:41;102444.88;;;8.62;83.12
62895;BME280;49204;44.916;37.998;2022-10-29T02:56:10;102447.50;;;8.67;83.02
62895;BME280;49204;44.916;37.998;2022-10-29T02:58:39;102446.16;;;8.68;82.96
62895;BME280;49204;44.916;37.998;2022-10-29T03:01:07;102438.27;;;8.73;82.87
62895;BME280;49204;44.916;37.998;2022-10-29T03:03:36;102443.94;;;8.76;82.83
62895;BME280;49204;44.916;37.998;2022-10-29T03:06:15;102442.63;;;8.76;82.97
62895;BME280;49204;44.916;37.998;2022-10-29T03:08:45;102440.00;;;8.76;83.02
62895;BME280;49204;44.916;37.998;2022-10-29T03:11:14;102438.23;;;8.78;82.94
62895;BME280;49204;44.916;37.998;2022-10-29T03:13:43;102436.06;;;8.80;82.97
62895;BME280;49204;44.916;37.998;2022-10-29T03:16:11;102438.69;;;8.80;82.95
62895;BME280;49204;44.916;37.998;2022-10-29T03:18:40;102441.31;;;8.79;82.89
62895;BME280;49204;44.916;37.998;2022-10-29T03:21:09;102438.69;;;8.79;82.89
62895;BME280;49204;44.916;37.998;2022-10-29T03:23:38;102439.14;;;8.78;82.91
62895;BME280;49204;44.916;37.998;2022-10-29T03:26:07;102433.44;;;8.79;82.88
62895;BME280;49204;44.916;37.998;2022-10-29T03:28:37;102429.49;;;8.80;82.84
62895;BME280;49204;44.916;37.998;2022-10-29T03:31:06;102436.47;;;8.84;82.82
62895;BME280;49204;44.916;37.998;2022-10-29T03:33:35;102435.61;;;8.85;82.77
62895;BME280;49204;44.916;37.998;2022-10-29T03:36:05;102439.09;;;8.89;82.69
62895;BME280;49204;44.916;37.998;2022-10-29T03:38:34;102441.27;;;8.89;82.67
62895;BME280;49204;44.916;37.998;2022-10-29T03:41:03;102442.55;;;8.93;82.58
62895;BME280;49204;44.916;37.998;2022-10-29T03:43:35;102443.44;;;8.95;82.50
62895;BME280;49204;44.916;37.998;2022-10-29T03:46:04;102442.54;;;8.97;82.41
62895;BME280;49204;44.916;37.998;2022-10-29T03:48:33;102437.73;;;8.94;82.42
62895;BME280;49204;44.916;37.998;2022-10-29T03:51:04;102444.77;;;8.88;82.42
62895;BME280;49204;44.916;37.998;2022-10-29T03:53:35;102441.27;;;8.83;82.51
62895;BME280;49204;44.916;37.998;2022-10-29T03:56:04;102442.22;;;8.76;82.67
62895;BME280;49204;44.916;37.998;2022-10-29T03:58:34;102441.80;;;8.69;82.73
62895;BME280;49204;44.916;37.998;2022-10-29T04:01:05;102438.73;;;8.65;82.89
62895;BME280;49204;44.916;37.998;2022-10-29T04:03:36;102439.17;;;8.63;82.95
62895;BME280;49204;44.916;37.998;2022-10-29T04:06:13;102435.27;;;8.61;83.01
62895;BME280;49204;44.916;37.998;2022-10-29T04:08:40;102437.89;;;8.61;83.19
62895;BME280;49204;44.916;37.998;2022-10-29T04:11:12;102436.13;;;8.62;83.36
62895;BME280;49204;44.916;37.998;2022-10-29T04:13:41;102437.45;;;8.62;83.43
62895;BME280;49204;44.916;37.998;2022-10-29T04:16:10;102437.45;;;8.62;83.57
62895;BME280;49204;44.916;37.998;2022-10-29T04:18:39;102437.86;;;8.66;83.67
62895;BME280;49204;44.916;37.998;2022-10-29T04:21:08;102443.53;;;8.72;83.58
62895;BME280;49204;44.916;37.998;2022-10-29T04:23:37;102448.33;;;8.75;83.50
62895;BME280;49204;44.916;37.998;2022-10-29T04:26:06;102447.88;;;8.79;83.55
62895;BME280;49204;44.916;37.998;2022-10-29T04:28:34;102442.63;;;8.80;83.57
62895;BME280;49204;44.916;37.998;2022-10-29T04:31:05;102454.86;;;8.83;83.67
62895;BME280;49204;44.916;37.998;2022-10-29T04:33:34;102450.05;;;8.82;83.80
62895;BME280;49204;44.916;37.998;2022-10-29T04:36:03;102453.55;;;8.81;83.90
62895;BME280;49204;44.916;37.998;2022-10-29T04:38:32;102455.72;;;8.83;83.86
62895;BME280;49204;44.916;37.998;2022-10-29T04:41:01;102459.66;;;8.86;83.84
62895;BME280;49204;44.916;37.998;2022-10-29T04:43:30;102457.03;;;8.89;83.78
62895;BME280;49204;44.916;37.998;2022-10-29T04:45:59;102459.20;;;8.92;83.76
62895;BME280;49204;44.916;37.998;2022-10-29T04:48:28;102463.15;;;8.92;83.78
62895;BME280;49204;44.916;37.998;2022-10-29T04:50:57;102461.83;;;8.95;83.79
62895;BME280;49204;44.916;37.998;2022-10-29T04:53:26;102466.19;;;8.96;83.82
62895;BME280;49204;44.916;37.998;2022-10-29T04:56:01;102466.18;;;9.02;83.86
62895;BME280;49204;44.916;37.998;2022-10-29T04:58:31;102473.57;;;9.08;83.77
62895;BME280;49204;44.916;37.998;2022-10-29T05:01:01;102472.21;;;9.16;83.67
62895;BME280;49204;44.916;37.998;2022-10-29T05:03:31;102469.57;;;9.22;83.61
62895;BME280;49204;44.916;37.998;2022-10-29T05:06:04;102476.95;;;9.31;83.58
62895;BME280;49204;44.916;37.998;2022-10-29T05:08:34;102474.27;;;9.40;83.49
62895;BME280;49204;44.916;37.998;2022-10-29T05:11:03;102476.38;;;9.51;83.25
62895;BME280;49204;44.916;37.998;2022-10-29T05:13:33;102479.84;;;9.61;83.09
62895;BME280;49204;44.916;37.998;2022-10-29T05:16:02;102473.16;;;9.72;82.94
62895;BME280;49204;44.916;37.998;2022-10-29T05:18:31;102481.89;;;9.78;82.81
62895;BME280;49204;44.916;37.998;2022-10-29T05:20:59;102476.56;;;9.86;82.68
62895;BME280;49204;44.916;37.998;2022-10-29T05:23:28;102483.52;;;9.93;82.52
62895;BME280;49204;44.916;37.998;2022-10-29T05:25:57;102487.37;;;10.04;82.34
62895;BME280;49204;44.916;37.998;2022-10-29T05:28:26;102481.63;;;10.11;82.18
62895;BME280;49204;44.916;37.998;2022-10-29T05:30:55;102483.74;;;10.17;82.09
62895;BME280;49204;44.916;37.998;2022-10-29T05:33:24;102483.72;;;10.22;82.22
62895;BME280;49204;44.916;37.998;2022-10-29T05:35:52;102476.59;;;10.30;82.20
62895;BME280;49204;44.916;37.998;2022-10-29T05:38:21;102482.20;;;10.42;82.06
62895;BME280;49204;44.916;37.998;2022-10-29T05:40:50;102478.61;;;10.51;81.88
62895;BME280;49204;44.916;37.998;2022-10-29T05:43:18;102483.30;;;10.62;81.71
62895;BME280;49204;44.916;37.998;2022-10-29T05:45:47;102474.42;;;10.72;81.54
62895;BME280;49204;44.916;37.998;2022-10-29T05:48:16;102481.77;;;10.80;81.38
62895;BME280;49204;44.916;37.998;2022-10-29T05:50:45;102477.77;;;10.87;81.27
62895;BME280;49204;44.916;37.998;2022-10-29T05:53:14;102475.48;;;10.94;81.20
62895;BME280;49204;44.916;37.998;2022-10-29T05:55:43;102477.10;;;11.03;81.06
62895;BME280;49204;44.916;37.998;2022-10-29T05:58:13;102483.14;;;11.12;80.99
62895;BME280;49204;44.916;37.998;2022-10-29T06:00:43;102484.27;;;11.25;80.88
62895;BME280;49204;44.916;37.998;2022-10-29T06:03:15;102485.43;;;11.37;80.82
62895;BME280;49204;44.916;37.998;2022-10-29T06:05:49;102491.37;;;11.51;80.60
62895;BME280;49204;44.916;37.998;2022-10-29T06:08:14;102490.78;;;11.61;80.26
62895;BME280;49204;44.916;37.998;2022-10-29T06:10:43;102487.89;;;11.76;80.11
62895;BME280;49204;44.916;37.998;2022-10-29T06:13:16;102483.73;;;11.92;79.90
62895;BME280;49204;44.916;37.998;2022-10-29T06:15:47;102489.61;;;12.08;79.72
62895;BME280;49204;44.916;37.998;2022-10-29T06:18:16;102480.93;;;12.27;79.49
62895;BME280;49204;44.916;37.998;2022-10-29T06:20:45;102488.58;;;12.41;79.45
62895;BME280;49204;44.916;37.998;2022-10-29T06:23:14;102489.32;;;12.49;79.25
62895;BME280;49204;44.916;37.998;2022-10-29T06:25:43;102488.00;;;12.49;78.67
62895;BME280;49204;44.916;37.998;2022-10-29T06:28:12;102489.06;;;12.61;78.36
62895;BME280;49204;44.916;37.998;2022-10-29T06:30:47;102485.16;;;12.81;78.18
62895;BME280;49204;44.916;37.998;2022-10-29T06:33:17;102481.19;;;13.02;78.06
62895;BME280;49204;44.916;37.998;2022-10-29T06:35:46;102475.89;;;13.23;77.79
62895;BME280;49204;44.916;37.998;2022-10-29T06:38:15;102482.03;;;13.44;77.48
62895;BME280;49204;44.916;37.998;2022-10-29T06:40:50;102478.39;;;13.68;77.21
62895;BME280;49204;44.916;37.998;2022-10-29T06:43:16;102487.06;;;13.93;76.76
62895;BME280;49204;44.916;37.998;2022-10-29T06:45:44;102478.44;;;14.19;76.12
62895;BME280;49204;44.916;37.998;2022-10-29T06:48:24;102475.87;;;14.48;75.62
62895;BME280;49204;44.916;37.998;2022-10-29T06:50:50;102474.88;;;14.69;75.14
62895;BME280;49204;44.916;37.998;2022-10-29T06:53:19;102481.75;;;14.91;74.52
62895;BME280;49204;44.916;37.998;2022-10-29T06:55:48;102482.22;;;15.05;73.82
62895;BME280;49204;44.916;37.998;2022-10-29T06:58:19;102476.80;;;15.09;73.46
62895;BME280;49204;44.916;37.998;2022-10-29T07:00:48;102473.23;;;15.24;73.10
62895;BME280;49204;44.916;37.998;2022-10-29T07:03:18;102480.06;;;15.47;72.78
62895;BME280;49204;44.916;37.998;2022-10-29T07:05:56;102480.79;;;15.65;72.47
62895;BME280;49204;44.916;37.998;2022-10-29T07:08:25;102477.86;;;15.74;71.95
62895;BME280;49204;44.916;37.998;2022-10-29T07:10:56;102474.27;;;15.77;71.50
62895;BME280;49204;44.916;37.998;2022-10-29T07:13:24;102473.57;;;16.10;71.21
62895;BME280;49204;44.916;37.998;2022-10-29T07:15:53;102471.59;;;16.66;70.28
62895;BME280;49204;44.916;37.998;2022-10-29T07:18:22;102470.33;;;17.00;69.67
62895;BME280;49204;44.916;37.998;2022-10-29T07:20:51;102469.08;;;17.32;69.17
62895;BME280;49204;44.916;37.998;2022-10-29T07:23:19;102476.58;;;17.77;67.92
62895;BME280;49204;44.916;37.998;2022-10-29T07:25:52;102477.56;;;17.86;66.63
62895;BME280;49204;44.916;37.998;2022-10-29T07:28:21;102476.81;;;17.92;66.55
62895;BME280;49204;44.916;37.998;2022-10-29T07:30:57;102482.35;;;17.76;66.56
62895;BME280;49204;44.916;37.998;2022-10-29T07:33:22;102475.70;;;17.44;66.19
62895;BME280;49204;44.916;37.998;2022-10-29T07:35:51;102475.74;;;17.20;66.61
62895;BME280;49204;44.916;37.998;2022-10-29T07:38:21;102471.37;;;17.19;66.47
62895;BME280;49204;44.916;37.998;2022-10-29T07:40:50;102468.87;;;17.14;65.68
62895;BME280;49204;44.916;37.998;2022-10-29T07:43:20;102467.48;;;17.16;65.44
62895;BME280;49204;44.916;37.998;2022-10-29T07:45:50;102465.90;;;17.22;65.11
62895;BME280;49204;44.916;37.998;2022-10-29T07:48:19;102461.70;;;17.39;65.17
62895;BME280;49204;44.916;37.998;2022-10-29T07:50:49;102462.91;;;17.42;63.86
62895;BME280;49204;44.916;37.998;2022-10-29T07:53:18;102464.98;;;17.23;62.90
62895;BME280;49204;44.916;37.998;2022-10-29T07:55:51;102466.31;;;17.23;62.85
62895;BME280;49204;44.916;37.998;2022-10-29T07:58:21;102469.21;;;17.39;62.84
62895;BME280;49204;44.916;37.998;2022-10-29T08:00:51;102464.41;;;17.49;62.60
62895;BME280;49204;44.916;37.998;2022-10-29T08:03:20;102457.75;;;17.49;61.51
62895;BME280;49204;44.916;37.998;2022-10-29T08:05:49;102461.74;;;17.49;60.95
62895;BME280;49204;44.916;37.998;2022-10-29T08:08:18;102464.03;;;17.68;61.06
62895;BME280;49204;44.916;37.998;2022-10-29T08:10:47;102463.64;;;17.89;60.82
62895;BME280;49204;44.916;37.998;2022-10-29T08:13:16;102462.05;;;18.26;60.45
62895;BME280;49204;44.916;37.998;2022-10-29T08:15:47;102460.14;;;18.59;59.57
62895;BME280;49204;44.916;37.998;2022-10-29T08:18:17;102455.85;;;18.65;58.57
62895;BME280;49204;44.916;37.998;2022-10-29T08:20:46;102456.86;;;18.92;58.37
62895;BME280;49204;44.916;37.998;2022-10-29T08:23:14;102460.19;;;18.97;56.18
62895;BME280;49204;44.916;37.998;2022-10-29T08:25:44;102454.72;;;18.81;54.74
62895;BME280;49204;44.916;37.998;2022-10-29T08:28:14;102450.27;;;19.09;54.68
62895;BME280;49204;44.916;37.998;2022-10-29T08:30:47;102444.41;;;19.65;54.20
62895;BME280;49204;44.916;37.998;2022-10-29T08:33:15;102451.84;;;20.13;53.56
62895;BME280;49204;44.916;37.998;2022-10-29T08:35:44;102442.55;;;20.02;53.06
62895;BME280;49204;44.916;37.998;2022-10-29T08:38:12;102443.51;;;19.47;53.10
62895;BME280;49204;44.916;37.998;2022-10-29T08:46:17;102443.96;;;17.82;54.73
62895;BME280;49204;44.916;37.998;2022-10-29T08:48:54;102437.56;;;17.53;55.57
62895;BME280;49204;44.916;37.998;2022-10-29T08:51:30;102436.41;;;17.39;56.25
62895;BME280;49204;44.916;37.998;2022-10-29T08:53:56;102435.43;;;17.19;56.15
62895;BME280;49204;44.916;37.998;2022-10-29T08:56:27;102431.70;;;17.01;56.43
62895;BME280;49204;44.916;37.998;2022-10-29T08:59:20;102436.20;;;16.87;56.38
62895;BME280;49204;44.916;37.998;2022-10-29T09:01:50;102435.91;;;16.71;56.29
62895;BME280;49204;44.916;37.998;2022-10-29T09:04:32;102433.47;;;16.65;56.67
62895;BME280;49204;44.916;37.998;2022-10-29T09:07:06;102431.15;;;16.56;56.59
62895;BME280;49204;44.916;37.998;2022-10-29T09:17:37;102417.49;;;16.30;56.72
62895;BME280;49204;44.916;37.998;2022-10-29T09:23:06;102415.80;;;16.64;57.12
62895;BME280;49204;44.916;37.998;2022-10-29T09:25:38;102413.48;;;16.90;56.76
62895;BME280;49204;44.916;37.998;2022-10-29T09:28:27;102411.95;;;17.29;55.89
62895;BME280;49204;44.916;37.998;2022-10-29T09:33:46;102407.84;;;18.55;52.90
62895;BME280;49204;44.916;37.998;2022-10-29T09:36:17;102409.93;;;18.78;51.97
62895;BME280;49204;44.916;37.998;2022-10-29T09:39:08;102411.59;;;18.70;51.01
62895;BME280;49204;44.916;37.998;2022-10-29T09:41:30;102408.84;;;18.33;51.87
62895;BME280;49204;44.916;37.998;2022-10-29T09:49:44;102397.73;;;17.40;53.59
62895;BME280;49204;44.916;37.998;2022-10-29T09:52:15;102385.83;;;17.16;53.99
62895;BME280;49204;44.916;37.998;2022-10-29T09:54:47;102389.98;;;17.02;53.97
62895;BME280;49204;44.916;37.998;2022-10-29T09:57:22;102382.63;;;16.96;54.17
62895;BME280;49204;44.916;37.998;2022-10-29T09:59:59;102391.05;;;17.30;53.33
62895;BME280;49204;44.916;37.998;2022-10-29T10:02:42;102381.08;;;17.35;53.29
62895;BME280;49204;44.916;37.998;2022-10-29T10:05:15;102379.80;;;17.33;52.47
62895;BME280;49204;44.916;37.998;2022-10-29T10:08:05;102378.63;;;17.30;52.41
62895;BME280;49204;44.916;37.998;2022-10-29T10:10:37;102376.49;;;17.28;51.86
62895;BME280;49204;44.916;37.998;2022-10-29T10:13:10;102370.38;;;17.36;52.20
62895;BME280;49204;44.916;37.998;2022-10-29T10:15:37;102371.88;;;17.74;51.85
62895;BME280;49204;44.916;37.998;2022-10-29T10:18:25;102365.69;;;18.05;50.97
62895;BME280;49204;44.916;37.998;2022-10-29T10:21:22;102368.95;;;18.98;49.41
62895;BME280;49204;44.916;37.998;2022-10-29T10:23:44;102360.50;;;18.98;49.00
62895;BME280;49204;44.916;37.998;2022-10-29T10:26:28;102352.52;;;18.69;48.79
62895;BME280;49204;44.916;37.998;2022-10-29T10:29:17;102353.28;;;18.43;49.72
62895;BME280;49204;44.916;37.998;2022-10-29T10:37:18;102344.70;;;17.35;49.77
62895;BME280;49204;44.916;37.998;2022-10-29T10:40:02;102342.12;;;17.12;50.47
62895;BME280;49204;44.916;37.998;2022-10-29T10:42:36;102338.29;;;16.97;50.90
62895;BME280;49204;44.916;37.998;2022-10-29T10:47:44;102335.84;;;17.03;50.96
62895;BME280;49204;44.916;37.998;2022-10-29T10:52:45;102326.76;;;16.96;51.00
62895;BME280;49204;44.916;37.998;2022-10-29T10:58:19;102329.99;;;16.59;51.44
62895;BME280;49204;44.916;37.998;2022-10-29T11:00:56;102326.84;;;16.49;51.93
62895;BME280;49204;44.916;37.998;2022-10-29T11:03:39;102327.55;;;16.31;52.19
62895;BME280;49204;44.916;37.998;2022-10-29T11:06:17;102326.77;;;16.15;52.62
62895;BME280;49204;44.916;37.998;2022-10-29T11:11:26;102319.99;;;15.83;53.28
62895;BME280;49204;44.916;37.998;2022-10-29T11:14:02;102317.48;;;15.65;53.48
62895;BME280;49204;44.916;37.998;2022-10-29T11:16:37;102323.91;;;15.46;53.64
62895;BME280;49204;44.916;37.998;2022-10-29T11:19:28;102317.22;;;15.34;54.00
62895;BME280;49204;44.916;37.998;2022-10-29T11:22:06;102317.99;;;15.24;54.34
62895;BME280;49204;44.916;37.998;2022-10-29T11:30:10;102322.33;;;15.14;54.72
62895;BME280;49204;44.916;37.998;2022-10-29T11:32:52;102316.30;;;15.09;54.85
62895;BME280;49204;44.916;37.998;2022-10-29T11:35:23;102323.95;;;15.04;55.08
62895;BME280;49204;44.916;37.998;2022-10-29T11:38:05;102321.81;;;15.02;55.13
62895;BME280;49204;44.916;37.998;2022-10-29T11:40:48;102319.38;;;14.96;55.25
62895;BME280;49204;44.916;37.998;2022-10-29T11:43:17;102319.97;;;14.91;55.37
62895;BME280;49204;44.916;37.998;2022-10-29T11:46:10;102322.31;;;14.87;55.62
62895;BME280;49204;44.916;37.998;2022-10-29T11:57:02;102313.50;;;14.72;56.27
62895;BME280;49204;44.916;37.998;2022-10-29T11:59:39;102314.44;;;14.71;56.42
62895;BME280;49204;44.916;37.998;2022-10-29T12:10:37;102314.34;;;14.74;56.74
62895;BME280;49204;44.916;37.998;2022-10-29T12:21:51;102315.52;;;14.92;57.36
62895;BME280;49204;44.916;37.998;2022-10-29T12:24:25;102317.92;;;14.99;57.23
62895;BME280;49204;44.916;37.998;2022-10-29T12:27:03;102312.39;;;15.07;57.12
62895;BME280;49204;44.916;37.998;2022-10-29T12:32:20;102306.31;;;15.17;56.95
62895;BME280;49204;44.916;37.998;2022-10-29T12:35:10;102305.89;;;15.16;56.98
62895;BME280;49204;44.916;37.998;2022-10-29T12:40:53;102313.93;;;15.14;57.02
62895;BME280;49204;44.916;37.998;2022-10-29T12:43:25;102310.09;;;15.10;57.05
62895;BME280;49204;44.916;37.998;2022-10-29T12:49:14;102314.41;;;14.99;57.08
62895;BME280;49204;44.916;37.998;2022-10-29T12:52:45;102308.84;;;14.93;57.15
62895;BME280;49204;44.916;37.998;2022-10-29T12:54:43;102308.59;;;14.88;57.25
62895;BME280;49204;44.916;37.998;2022-10-29T12:59:44;102299.14;;;14.79;57.34
62895;BME280;49204;44.916;37.998;2022-10-29T13:02:25;102302.30;;;14.77;57.38
62895;BME280;49204;44.916;37.998;2022-10-29T13:13:03;102299.25;;;14.76;57.57
62895;BME280;49204;44.916;37.998;2022-10-29T13:18:21;102299.77;;;14.74;57.57
62895;BME280;49204;44.916;37.998;2022-10-29T13:20:52;102303.36;;;14.71;57.56
62895;BME280;49204;44.916;37.998;2022-10-29T13:25:58;102296.47;;;14.65;57.59
62895;BME280;49204;44.916;37.998;2022-10-29T13:41:34;102285.34;;;14.53;57.73
62895;BME280;49204;44.916;37.998;2022-10-29T13:44:09;102288.55;;;14.49;57.78
62895;BME280;49204;44.916;37.998;2022-10-29T13:46:57;102288.66;;;14.46;57.96
62895;BME280;49204;44.916;37.998;2022-10-29T13:49:41;102287.42;;;14.43;58.18
62895;BME280;49204;44.916;37.998;2022-10-29T13:52:15;102287.16;;;14.37;58.43
62895;BME280;49204;44.916;37.998;2022-10-29T13:57:32;102289.15;;;14.29;58.72
62895;BME280;49204;44.916;37.998;2022-10-29T14:05:36;102280.66;;;14.18;59.02
62895;BME280;49204;44.916;37.998;2022-10-29T14:08:23;102284.73;;;14.15;58.99
62895;BME280;49204;44.916;37.998;2022-10-29T14:10:57;102279.98;;;14.11;58.97
62895;BME280;49204;44.916;37.998;2022-10-29T14:13:31;102271.27;;;14.07;58.97
62895;BME280;49204;44.916;37.998;2022-10-29T14:18:45;102271.88;;;14.01;58.96
62895;BME280;49204;44.916;37.998;2022-10-29T14:21:23;102272.47;;;13.96;58.99
62895;BME280;49204;44.916;37.998;2022-10-29T14:24:02;102266.03;;;13.89;59.02
62895;BME280;49204;44.916;37.998;2022-10-29T14:26:36;102271.91;;;13.84;59.13
62895;BME280;49204;44.916;37.998;2022-10-29T14:29:19;102265.47;;;13.78;59.33
62895;BME280;49204;44.916;37.998;2022-10-29T14:32:05;102261.66;;;13.72;59.57
62895;BME280;49204;44.916;37.998;2022-10-29T14:34:34;102263.66;;;13.64;59.86
62895;BME280;49204;44.916;37.998;2022-10-29T14:37:16;102259.05;;;13.56;60.19
62895;BME280;49204;44.916;37.998;2022-10-29T14:39:49;102260.52;;;13.49;60.50
62895;BME280;49204;44.916;37.998;2022-10-29T14:42:39;102258.44;;;13.44;60.77
62895;BME280;49204;44.916;37.998;2022-10-29T14:45:24;102256.89;;;13.37;61.04
62895;BME280;49204;44.916;37.998;2022-10-29T14:48:00;102257.57;;;13.26;61.39
62895;BME280;49204;44.916;37.998;2022-10-29T14:50:27;102257.74;;;13.20;61.66
62895;BME280;49204;44.916;37.998;2022-10-29T14:52:59;102261.38;;;13.16;61.89
62895;BME280;49204;44.916;37.998;2022-10-29T14:55:30;102262.80;;;13.11;62.09
62895;BME280;49204;44.916;37.998;2022-10-29T14:58:18;102258.11;;;13.06;62.39
62895;BME280;49204;44.916;37.998;2022-10-29T15:01:05;102254.70;;;13.01;62.64
62895;BME280;49204;44.916;37.998;2022-10-29T15:03:35;102257.38;;;12.99;62.73
62895;BME280;49204;44.916;37.998;2022-10-29T15:08:53;102260.92;;;12.98;62.83
62895;BME280;49204;44.916;37.998;2022-10-29T15:11:29;102257.84;;;12.99;62.95
62895;BME280;49204;44.916;37.998;2022-10-29T15:13:57;102260.52;;;12.97;63.16
62895;BME280;49204;44.916;37.998;2022-10-29T15:16:26;102261.08;;;12.92;63.37
62895;BME280;49204;44.916;37.998;2022-10-29T15:18:56;102261.58;;;12.90;63.45
62895;BME280;49204;44.916;37.998;2022-10-29T15:21:29;102260.35;;;12.85;63.67
62895;BME280;49204;44.916;37.998;2022-10-29T15:24:09;102263.45;;;12.85;63.82
62895;BME280;49204;44.916;37.998;2022-10-29T15:26:51;102259.92;;;12.86;63.77
62895;BME280;49204;44.916;37.998;2022-10-29T15:29:25;102262.96;;;12.87;63.69
62895;BME280;49204;44.916;37.998;2022-10-29T15:31:55;102264.28;;;12.87;63.71
62895;BME280;49204;44.916;37.998;2022-10-29T15:34:33;102260.31;;;12.87;63.83
62895;BME280;49204;44.916;37.998;2022-10-29T15:37:22;102260.81;;;12.85;63.97
62895;BME280;49204;44.916;37.998;2022-10-29T15:39:59;102263.09;;;12.82;64.17
62895;BME280;49204;44.916;37.998;2022-10-29T15:42:31;102260.97;;;12.79;64.37
62895;BME280;49204;44.916;37.998;2022-10-29T15:47:51;102262.52;;;12.69;64.67
62895;BME280;49204;44.916;37.998;2022-10-29T15:50:41;102264.45;;;12.61;64.76
62895;BME280;49204;44.916;37.998;2022-10-29T15:53:13;102262.79;;;12.57;64.89